sensor_id;sensor_type;location;lat;lon;timestamp;temperature;humidity
5796;DHT22;2924;51.458;7.046;2023-07-02T00:01:41;16.30;99.90
5796;DHT22;2924;51.458;7.046;2023-07-02T00:04:07;16.30;99.90
5796;DHT22;2924;51.458;7.046;2023-07-02T00:06:34;16.30;99.90
5796;DHT22;2924;51.458;7.046;2023-07-02T00:09:11;16.30;99.90
5796;DHT22;2924;51.458;7.046;2023-07-02T00:11:42;16.30;99.90
5796;DHT22;2924;51.458;7.046;2023-07-02T00:14:09;16.30;99.90
5796;DHT22;2924;51.458;7.046;2023-07-02T00:16:45;16.30;99.90
5796;DHT22;2924;51.458;7.046;2023-07-02T00:19:13;16.30;99.90
5796;DHT22;2924;51.458;7.046;2023-07-02T00:21:39;16.30;99.90
5796;DHT22;2924;51.458;7.046;2023-07-02T00:24:06;16.30;99.90
5796;DHT22;2924;51.458;7.046;2023-07-02T00:26:31;16.30;99.90
5796;DHT22;2924;51.458;7.046;2023-07-02T00:28:57;16.30;99.90
5796;DHT22;2924;51.458;7.046;2023-07-02T00:31:23;16.30;99.90
5796;DHT22;2924;51.458;7.046;2023-07-02T00:33:49;16.30;99.90
5796;DHT22;2924;51.458;7.046;2023-07-02T00:36:15;16.30;99.90
5796;DHT22;2924;51.458;7.046;2023-07-02T00:38:41;16.40;99.90
5796;DHT22;2924;51.458;7.046;2023-07-02T00:41:09;16.30;99.90
5796;DHT22;2924;51.458;7.046;2023-07-02T00:43:35;16.30;99.90
5796;DHT22;2924;51.458;7.046;2023-07-02T00:46:01;16.30;99.90
5796;DHT22;2924;51.458;7.046;2023-07-02T00:48:29;16.30;99.90
5796;DHT22;2924;51.458;7.046;2023-07-02T00:50:55;16.30;99.90
5796;DHT22;2924;51.458;7.046;2023-07-02T00:53:21;16.30;99.90
5796;DHT22;2924;51.458;7.046;2023-07-02T00:55:47;16.30;99.90
5796;DHT22;2924;51.458;7.046;2023-07-02T00:58:12;16.30;99.90
5796;DHT22;2924;51.458;7.046;2023-07-02T01:00:42;16.20;99.90
5796;DHT22;2924;51.458;7.046;2023-07-02T01:03:07;16.20;99.90
5796;DHT22;2924;51.458;7.046;2023-07-02T01:05:33;16.20;99.90
5796;DHT22;2924;51.458;7.046;2023-07-02T01:08:03;16.20;99.90
5796;DHT22;2924;51.458;7.046;2023-07-02T01:10:29;16.10;99.90
5796;DHT22;2924;51.458;7.046;2023-07-02T01:13:02;16.10;99.90
5796;DHT22;2924;51.458;7.046;2023-07-02T01:15:29;16.10;99.90
5796;DHT22;2924;51.458;7.046;2023-07-02T01:17:55;16.10;99.90
5796;DHT22;2924;51.458;7.046;2023-07-02T01:20:21;16.00;99.90
5796;DHT22;2924;51.458;7.046;2023-07-02T01:22:48;16.00;99.90
5796;DHT22;2924;51.458;7.046;2023-07-02T01:25:17;16.00;99.90
5796;DHT22;2924;51.458;7.046;2023-07-02T01:27:43;16.00;99.90
5796;DHT22;2924;51.458;7.046;2023-07-02T01:30:09;15.90;99.90
5796;DHT22;2924;51.458;7.046;2023-07-02T01:32:36;15.80;99.90
5796;DHT22;2924;51.458;7.046;2023-07-02T01:35:02;15.70;99.90
5796;DHT22;2924;51.458;7.046;2023-07-02T01:37:28;15.70;99.90
5796;DHT22;2924;51.458;7.046;2023-07-02T01:39:53;15.60;99.90
5796;DHT22;2924;51.458;7.046;2023-07-02T01:42:19;15.60;99.90
5796;DHT22;2924;51.458;7.046;2023-07-02T01:44:47;15.50;99.90
5796;DHT22;2924;51.458;7.046;2023-07-02T01:47:13;15.40;99.90
5796;DHT22;2924;51.458;7.046;2023-07-02T01:49:39;15.30;99.90
5796;DHT22;2924;51.458;7.046;2023-07-02T01:52:05;15.40;99.90
5796;DHT22;2924;51.458;7.046;2023-07-02T01:54:32;15.30;99.90
5796;DHT22;2924;51.458;7.046;2023-07-02T01:56:58;15.40;99.90
5796;DHT22;2924;51.458;7.046;2023-07-02T01:59:24;15.50;99.90
5796;DHT22;2924;51.458;7.046;2023-07-02T02:01:50;15.50;99.90
5796;DHT22;2924;51.458;7.046;2023-07-02T02:04:16;15.60;99.90
5796;DHT22;2924;51.458;7.046;2023-07-02T02:06:42;15.60;99.90
5796;DHT22;2924;51.458;7.046;2023-07-02T02:09:08;15.60;99.90
5796;DHT22;2924;51.458;7.046;2023-07-02T02:11:38;15.60;99.90
5796;DHT22;2924;51.458;7.046;2023-07-02T02:14:04;15.50;99.90
5796;DHT22;2924;51.458;7.046;2023-07-02T02:16:30;15.50;99.90
5796;DHT22;2924;51.458;7.046;2023-07-02T02:18:56;15.50;99.90
5796;DHT22;2924;51.458;7.046;2023-07-02T02:21:22;15.50;99.90
5796;DHT22;2924;51.458;7.046;2023-07-02T02:23:47;15.40;99.90
5796;DHT22;2924;51.458;7.046;2023-07-02T02:26:13;15.40;99.90
5796;DHT22;2924;51.458;7.046;2023-07-02T02:28:40;15.40;99.90
5796;DHT22;2924;51.458;7.046;2023-07-02T02:31:06;15.40;99.90
5796;DHT22;2924;51.458;7.046;2023-07-02T02:33:32;15.40;99.90
5796;DHT22;2924;51.458;7.046;2023-07-02T02:35:58;15.40;99.90
5796;DHT22;2924;51.458;7.046;2023-07-02T02:38:24;15.40;99.90
5796;DHT22;2924;51.458;7.046;2023-07-02T02:40:49;15.40;99.90
5796;DHT22;2924;51.458;7.046;2023-07-02T02:43:15;15.40;99.90
5796;DHT22;2924;51.458;7.046;2023-07-02T02:45:42;15.50;99.90
5796;DHT22;2924;51.458;7.046;2023-07-02T02:48:08;15.50;99.90
5796;DHT22;2924;51.458;7.046;2023-07-02T02:50:33;15.50;99.90
5796;DHT22;2924;51.458;7.046;2023-07-02T02:52:59;15.50;99.90
5796;DHT22;2924;51.458;7.046;2023-07-02T02:55:25;15.50;99.90
5796;DHT22;2924;51.458;7.046;2023-07-02T02:57:51;15.40;99.90
5796;DHT22;2924;51.458;7.046;2023-07-02T03:00:17;15.50;99.90
5796;DHT22;2924;51.458;7.046;2023-07-02T03:02:43;15.40;99.90
5796;DHT22;2924;51.458;7.046;2023-07-02T03:05:08;15.50;99.90
5796;DHT22;2924;51.458;7.046;2023-07-02T03:07:34;15.50;99.90
5796;DHT22;2924;51.458;7.046;2023-07-02T03:10:00;15.50;99.90
5796;DHT22;2924;51.458;7.046;2023-07-02T03:12:27;15.50;99.90
5796;DHT22;2924;51.458;7.046;2023-07-02T03:14:52;15.50;99.90
5796;DHT22;2924;51.458;7.046;2023-07-02T03:17:22;15.50;99.90
5796;DHT22;2924;51.458;7.046;2023-07-02T03:19:48;15.50;99.90
5796;DHT22;2924;51.458;7.046;2023-07-02T03:22:14;15.50;99.90
5796;DHT22;2924;51.458;7.046;2023-07-02T03:24:39;15.50;99.90
5796;DHT22;2924;51.458;7.046;2023-07-02T03:27:05;15.50;99.90
5796;DHT22;2924;51.458;7.046;2023-07-02T03:29:32;15.50;99.90
5796;DHT22;2924;51.458;7.046;2023-07-02T03:31:58;15.50;99.90
5796;DHT22;2924;51.458;7.046;2023-07-02T03:34:24;15.50;99.90
5796;DHT22;2924;51.458;7.046;2023-07-02T03:36:49;15.50;99.90
5796;DHT22;2924;51.458;7.046;2023-07-02T03:39:15;15.50;99.90
5796;DHT22;2924;51.458;7.046;2023-07-02T03:41:41;15.50;99.90
5796;DHT22;2924;51.458;7.046;2023-07-02T03:44:07;15.50;99.90
5796;DHT22;2924;51.458;7.046;2023-07-02T03:46:33;15.50;99.90
5796;DHT22;2924;51.458;7.046;2023-07-02T03:48:58;15.50;99.90
5796;DHT22;2924;51.458;7.046;2023-07-02T03:51:24;15.50;99.90
5796;DHT22;2924;51.458;7.046;2023-07-02T03:53:49;15.50;99.90
5796;DHT22;2924;51.458;7.046;2023-07-02T03:56:15;15.50;99.90
5796;DHT22;2924;51.458;7.046;2023-07-02T03:58:41;15.50;99.90
5796;DHT22;2924;51.458;7.046;2023-07-02T04:01:06;15.50;99.90
5796;DHT22;2924;51.458;7.046;2023-07-02T04:03:32;15.50;99.90
5796;DHT22;2924;51.458;7.046;2023-07-02T04:05:58;15.50;99.90
5796;DHT22;2924;51.458;7.046;2023-07-02T04:08:23;15.50;99.90
5796;DHT22;2924;51.458;7.046;2023-07-02T04:10:50;15.50;99.90
5796;DHT22;2924;51.458;7.046;2023-07-02T04:13:16;15.50;99.90
5796;DHT22;2924;51.458;7.046;2023-07-02T04:15:41;15.40;99.90
5796;DHT22;2924;51.458;7.046;2023-07-02T04:18:07;15.50;99.90
5796;DHT22;2924;51.458;7.046;2023-07-02T04:20:33;15.50;99.90
5796;DHT22;2924;51.458;7.046;2023-07-02T04:22:58;15.50;99.90
5796;DHT22;2924;51.458;7.046;2023-07-02T04:25:25;15.50;99.90
5796;DHT22;2924;51.458;7.046;2023-07-02T04:27:50;15.60;99.90
5796;DHT22;2924;51.458;7.046;2023-07-02T04:30:21;15.60;99.90
5796;DHT22;2924;51.458;7.046;2023-07-02T04:32:47;15.60;99.90
5796;DHT22;2924;51.458;7.046;2023-07-02T04:35:12;15.60;99.90
5796;DHT22;2924;51.458;7.046;2023-07-02T04:37:38;15.70;99.90
5796;DHT22;2924;51.458;7.046;2023-07-02T04:40:05;15.70;99.90
5796;DHT22;2924;51.458;7.046;2023-07-02T04:42:40;15.70;99.90
5796;DHT22;2924;51.458;7.046;2023-07-02T04:45:07;15.90;99.90
5796;DHT22;2924;51.458;7.046;2023-07-02T04:47:34;15.90;99.90
5796;DHT22;2924;51.458;7.046;2023-07-02T04:49:59;15.90;99.90
5796;DHT22;2924;51.458;7.046;2023-07-02T04:52:25;16.00;99.90
5796;DHT22;2924;51.458;7.046;2023-07-02T04:54:51;16.00;99.90
5796;DHT22;2924;51.458;7.046;2023-07-02T04:57:16;16.00;99.90
5796;DHT22;2924;51.458;7.046;2023-07-02T04:59:42;16.10;99.90
5796;DHT22;2924;51.458;7.046;2023-07-02T05:02:08;16.20;99.90
5796;DHT22;2924;51.458;7.046;2023-07-02T05:04:35;16.30;99.90
5796;DHT22;2924;51.458;7.046;2023-07-02T05:07:00;16.40;99.90
5796;DHT22;2924;51.458;7.046;2023-07-02T05:09:26;16.50;99.90
5796;DHT22;2924;51.458;7.046;2023-07-02T05:11:51;16.50;99.90
5796;DHT22;2924;51.458;7.046;2023-07-02T05:14:17;16.70;99.90
5796;DHT22;2924;51.458;7.046;2023-07-02T05:16:43;16.80;99.90
5796;DHT22;2924;51.458;7.046;2023-07-02T05:19:08;17.00;99.90
5796;DHT22;2924;51.458;7.046;2023-07-02T05:21:34;17.10;99.90
5796;DHT22;2924;51.458;7.046;2023-07-02T05:23:59;17.30;99.90
5796;DHT22;2924;51.458;7.046;2023-07-02T05:26:25;17.40;99.90
5796;DHT22;2924;51.458;7.046;2023-07-02T05:28:52;17.50;99.90
5796;DHT22;2924;51.458;7.046;2023-07-02T05:31:18;17.40;99.90
5796;DHT22;2924;51.458;7.046;2023-07-02T05:33:44;17.40;99.90
5796;DHT22;2924;51.458;7.046;2023-07-02T05:36:09;17.40;99.90
5796;DHT22;2924;51.458;7.046;2023-07-02T05:38:35;17.40;99.90
5796;DHT22;2924;51.458;7.046;2023-07-02T05:41:02;17.40;99.90
5796;DHT22;2924;51.458;7.046;2023-07-02T05:43:27;17.40;99.90
5796;DHT22;2924;51.458;7.046;2023-07-02T05:45:53;17.50;99.90
5796;DHT22;2924;51.458;7.046;2023-07-02T05:48:18;17.80;99.90
5796;DHT22;2924;51.458;7.046;2023-07-02T05:50:44;17.90;99.90
5796;DHT22;2924;51.458;7.046;2023-07-02T05:53:09;18.00;99.90
5796;DHT22;2924;51.458;7.046;2023-07-02T05:55:36;18.10;99.90
5796;DHT22;2924;51.458;7.046;2023-07-02T05:58:01;18.30;99.90
5796;DHT22;2924;51.458;7.046;2023-07-02T06:00:28;18.60;99.90
5796;DHT22;2924;51.458;7.046;2023-07-02T06:02:54;18.60;99.90
5796;DHT22;2924;51.458;7.046;2023-07-02T06:05:20;18.60;99.90
5796;DHT22;2924;51.458;7.046;2023-07-02T06:07:45;18.60;99.90
5796;DHT22;2924;51.458;7.046;2023-07-02T06:10:11;18.70;99.90
5796;DHT22;2924;51.458;7.046;2023-07-02T06:12:37;18.90;99.90
5796;DHT22;2924;51.458;7.046;2023-07-02T06:15:03;19.00;99.90
5796;DHT22;2924;51.458;7.046;2023-07-02T06:17:28;19.10;99.90
5796;DHT22;2924;51.458;7.046;2023-07-02T06:19:56;19.30;99.90
5796;DHT22;2924;51.458;7.046;2023-07-02T06:22:22;19.60;99.90
5796;DHT22;2924;51.458;7.046;2023-07-02T06:24:47;19.80;99.90
5796;DHT22;2924;51.458;7.046;2023-07-02T06:27:13;19.90;99.90
5796;DHT22;2924;51.458;7.046;2023-07-02T06:29:38;20.10;99.90
5796;DHT22;2924;51.458;7.046;2023-07-02T06:32:04;20.30;99.90
5796;DHT22;2924;51.458;7.046;2023-07-02T06:34:30;20.50;99.90
5796;DHT22;2924;51.458;7.046;2023-07-02T06:36:55;20.50;99.90
5796;DHT22;2924;51.458;7.046;2023-07-02T06:39:21;20.70;99.90
5796;DHT22;2924;51.458;7.046;2023-07-02T06:41:46;21.30;99.90
5796;DHT22;2924;51.458;7.046;2023-07-02T06:44:12;21.90;99.90
5796;DHT22;2924;51.458;7.046;2023-07-02T06:46:37;22.30;99.90
5796;DHT22;2924;51.458;7.046;2023-07-02T06:49:04;22.50;99.90
5796;DHT22;2924;51.458;7.046;2023-07-02T06:51:30;22.70;99.90
5796;DHT22;2924;51.458;7.046;2023-07-02T06:53:55;22.50;99.90
5796;DHT22;2924;51.458;7.046;2023-07-02T06:56:21;22.50;99.90
5796;DHT22;2924;51.458;7.046;2023-07-02T06:58:46;23.00;99.90
5796;DHT22;2924;51.458;7.046;2023-07-02T07:01:12;23.60;99.90
5796;DHT22;2924;51.458;7.046;2023-07-02T07:03:38;24.30;98.50
5796;DHT22;2924;51.458;7.046;2023-07-02T07:06:03;25.10;97.50
5796;DHT22;2924;51.458;7.046;2023-07-02T07:08:29;25.10;96.00
5796;DHT22;2924;51.458;7.046;2023-07-02T07:10:55;24.80;96.20
5796;DHT22;2924;51.458;7.046;2023-07-02T07:13:20;24.80;96.50
5796;DHT22;2924;51.458;7.046;2023-07-02T07:15:46;24.70;96.40
5796;DHT22;2924;51.458;7.046;2023-07-02T07:18:12;24.50;96.30
5796;DHT22;2924;51.458;7.046;2023-07-02T07:20:39;24.10;96.70
5796;DHT22;2924;51.458;7.046;2023-07-02T07:23:05;23.70;96.90
5796;DHT22;2924;51.458;7.046;2023-07-02T07:25:31;23.20;97.70
5796;DHT22;2924;51.458;7.046;2023-07-02T07:27:59;23.50;98.30
5796;DHT22;2924;51.458;7.046;2023-07-02T07:30:24;23.60;97.90
5796;DHT22;2924;51.458;7.046;2023-07-02T07:32:51;24.30;97.40
5796;DHT22;2924;51.458;7.046;2023-07-02T07:35:17;24.90;96.10
5796;DHT22;2924;51.458;7.046;2023-07-02T07:37:43;25.60;95.40
5796;DHT22;2924;51.458;7.046;2023-07-02T07:40:10;25.80;94.70
5796;DHT22;2924;51.458;7.046;2023-07-02T07:42:35;25.30;95.40
5796;DHT22;2924;51.458;7.046;2023-07-02T07:45:02;25.20;95.10
5796;DHT22;2924;51.458;7.046;2023-07-02T07:47:28;24.70;95.30
5796;DHT22;2924;51.458;7.046;2023-07-02T07:49:54;24.60;94.90
5796;DHT22;2924;51.458;7.046;2023-07-02T07:52:20;25.10;95.50
5796;DHT22;2924;51.458;7.046;2023-07-02T07:54:45;25.90;94.60
5796;DHT22;2924;51.458;7.046;2023-07-02T07:57:11;25.90;93.50
5796;DHT22;2924;51.458;7.046;2023-07-02T07:59:37;25.20;93.50
5796;DHT22;2924;51.458;7.046;2023-07-02T08:02:02;24.60;93.90
5796;DHT22;2924;51.458;7.046;2023-07-02T08:04:28;23.90;94.40
5796;DHT22;2924;51.458;7.046;2023-07-02T08:06:54;23.70;94.40
5796;DHT22;2924;51.458;7.046;2023-07-02T08:09:20;23.80;93.80
5796;DHT22;2924;51.458;7.046;2023-07-02T08:11:46;23.80;93.90
5796;DHT22;2924;51.458;7.046;2023-07-02T08:14:12;24.00;93.30
5796;DHT22;2924;51.458;7.046;2023-07-02T08:16:38;23.90;93.50
5796;DHT22;2924;51.458;7.046;2023-07-02T08:19:03;24.10;93.70
5796;DHT22;2924;51.458;7.046;2023-07-02T08:21:29;24.80;93.50
5796;DHT22;2924;51.458;7.046;2023-07-02T08:23:54;24.90;92.60
5796;DHT22;2924;51.458;7.046;2023-07-02T08:26:20;24.20;92.50
5796;DHT22;2924;51.458;7.046;2023-07-02T08:28:45;23.90;93.20
5796;DHT22;2924;51.458;7.046;2023-07-02T08:31:11;23.90;93.40
5796;DHT22;2924;51.458;7.046;2023-07-02T08:33:37;23.60;93.00
5796;DHT22;2924;51.458;7.046;2023-07-02T08:36:02;23.20;93.30
5796;DHT22;2924;51.458;7.046;2023-07-02T08:38:28;22.90;93.50
5796;DHT22;2924;51.458;7.046;2023-07-02T08:40:53;23.50;93.70
5796;DHT22;2924;51.458;7.046;2023-07-02T08:43:19;23.90;92.30
5796;DHT22;2924;51.458;7.046;2023-07-02T08:45:45;24.30;90.80
5796;DHT22;2924;51.458;7.046;2023-07-02T08:48:12;24.30;90.50
5796;DHT22;2924;51.458;7.046;2023-07-02T08:50:38;24.40;91.00
5796;DHT22;2924;51.458;7.046;2023-07-02T08:53:04;24.70;90.90
5796;DHT22;2924;51.458;7.046;2023-07-02T08:55:29;25.20;90.70
5796;DHT22;2924;51.458;7.046;2023-07-02T08:57:56;25.50;90.20
5796;DHT22;2924;51.458;7.046;2023-07-02T09:00:26;25.20;90.20
5796;DHT22;2924;51.458;7.046;2023-07-02T09:02:51;24.30;90.50
5796;DHT22;2924;51.458;7.046;2023-07-02T09:05:17;23.50;90.70
5796;DHT22;2924;51.458;7.046;2023-07-02T09:07:47;23.90;90.90
5796;DHT22;2924;51.458;7.046;2023-07-02T09:10:25;24.10;90.20
5796;DHT22;2924;51.458;7.046;2023-07-02T09:13:05;24.30;90.00
5796;DHT22;2924;51.458;7.046;2023-07-02T09:15:38;24.10;88.70
5796;DHT22;2924;51.458;7.046;2023-07-02T09:20:42;23.90;90.00
5796;DHT22;2924;51.458;7.046;2023-07-02T09:23:08;24.10;89.60
5796;DHT22;2924;51.458;7.046;2023-07-02T09:25:38;24.70;89.70
5796;DHT22;2924;51.458;7.046;2023-07-02T09:28:17;25.10;89.40
5796;DHT22;2924;51.458;7.046;2023-07-02T09:30:50;25.80;88.80
5796;DHT22;2924;51.458;7.046;2023-07-02T09:33:16;26.10;87.60
5796;DHT22;2924;51.458;7.046;2023-07-02T09:35:42;26.20;86.70
5796;DHT22;2924;51.458;7.046;2023-07-02T09:38:08;25.90;87.50
5796;DHT22;2924;51.458;7.046;2023-07-02T09:40:34;26.60;87.10
5796;DHT22;2924;51.458;7.046;2023-07-02T09:43:00;27.20;86.20
5796;DHT22;2924;51.458;7.046;2023-07-02T09:45:26;27.80;85.70
5796;DHT22;2924;51.458;7.046;2023-07-02T09:47:55;28.30;86.00
5796;DHT22;2924;51.458;7.046;2023-07-02T09:50:22;28.60;84.40
5796;DHT22;2924;51.458;7.046;2023-07-02T09:52:48;29.10;84.20
5796;DHT22;2924;51.458;7.046;2023-07-02T09:55:14;29.20;82.40
5796;DHT22;2924;51.458;7.046;2023-07-02T09:57:41;29.00;82.30
5796;DHT22;2924;51.458;7.046;2023-07-02T10:00:08;28.40;81.30
5796;DHT22;2924;51.458;7.046;2023-07-02T10:02:34;27.40;82.50
5796;DHT22;2924;51.458;7.046;2023-07-02T10:05:01;26.40;83.60
5796;DHT22;2924;51.458;7.046;2023-07-02T10:07:28;26.00;86.00
5796;DHT22;2924;51.458;7.046;2023-07-02T10:09:54;26.10;86.90
5796;DHT22;2924;51.458;7.046;2023-07-02T10:12:21;26.00;86.70
5796;DHT22;2924;51.458;7.046;2023-07-02T10:14:49;25.10;87.10
5796;DHT22;2924;51.458;7.046;2023-07-02T10:17:34;24.30;89.30
5796;DHT22;2924;51.458;7.046;2023-07-02T10:20:05;23.40;90.00
5796;DHT22;2924;51.458;7.046;2023-07-02T10:22:46;22.70;90.00
5796;DHT22;2924;51.458;7.046;2023-07-02T10:25:27;22.30;90.20
5796;DHT22;2924;51.458;7.046;2023-07-02T10:27:52;22.10;90.90
5796;DHT22;2924;51.458;7.046;2023-07-02T10:30:18;22.20;90.30
5796;DHT22;2924;51.458;7.046;2023-07-02T10:32:43;21.80;90.30
5796;DHT22;2924;51.458;7.046;2023-07-02T10:35:17;21.80;90.90
5796;DHT22;2924;51.458;7.046;2023-07-02T10:37:43;22.40;90.40
5796;DHT22;2924;51.458;7.046;2023-07-02T10:40:09;23.30;88.70
5796;DHT22;2924;51.458;7.046;2023-07-02T10:42:46;24.10;87.80
5796;DHT22;2924;51.458;7.046;2023-07-02T10:45:12;24.40;86.50
5796;DHT22;2924;51.458;7.046;2023-07-02T10:47:41;24.60;86.20
5796;DHT22;2924;51.458;7.046;2023-07-02T10:52:39;24.40;86.70
5796;DHT22;2924;51.458;7.046;2023-07-02T10:55:05;24.50;87.00
5796;DHT22;2924;51.458;7.046;2023-07-02T10:57:31;24.50;86.40
5796;DHT22;2924;51.458;7.046;2023-07-02T11:00:07;24.70;86.20
5796;DHT22;2924;51.458;7.046;2023-07-02T11:02:34;25.10;86.30
5796;DHT22;2924;51.458;7.046;2023-07-02T11:05:00;25.40;85.60
5796;DHT22;2924;51.458;7.046;2023-07-02T11:07:26;25.70;85.60
5796;DHT22;2924;51.458;7.046;2023-07-02T11:09:51;25.60;86.10
5796;DHT22;2924;51.458;7.046;2023-07-02T11:12:17;25.30;85.40
5796;DHT22;2924;51.458;7.046;2023-07-02T11:14:43;24.80;86.10
5796;DHT22;2924;51.458;7.046;2023-07-02T11:17:08;24.20;86.30
5796;DHT22;2924;51.458;7.046;2023-07-02T11:19:34;23.90;88.00
5796;DHT22;2924;51.458;7.046;2023-07-02T11:22:00;23.70;88.20
5796;DHT22;2924;51.458;7.046;2023-07-02T11:26:57;23.30;88.50
5796;DHT22;2924;51.458;7.046;2023-07-02T11:29:23;23.20;88.60
5796;DHT22;2924;51.458;7.046;2023-07-02T11:31:49;23.50;88.70
5796;DHT22;2924;51.458;7.046;2023-07-02T11:34:16;23.90;89.10
5796;DHT22;2924;51.458;7.046;2023-07-02T11:36:42;24.10;87.80
5796;DHT22;2924;51.458;7.046;2023-07-02T11:39:07;24.30;88.20
5796;DHT22;2924;51.458;7.046;2023-07-02T11:41:45;24.50;87.30
5796;DHT22;2924;51.458;7.046;2023-07-02T11:44:12;24.50;86.00
5796;DHT22;2924;51.458;7.046;2023-07-02T11:46:37;24.60;85.10
5796;DHT22;2924;51.458;7.046;2023-07-02T11:49:04;24.60;85.60
5796;DHT22;2924;51.458;7.046;2023-07-02T11:51:36;24.60;84.60
5796;DHT22;2924;51.458;7.046;2023-07-02T11:54:03;24.40;83.40
5796;DHT22;2924;51.458;7.046;2023-07-02T11:56:28;24.40;84.90
5796;DHT22;2924;51.458;7.046;2023-07-02T11:58:54;24.50;83.90
5796;DHT22;2924;51.458;7.046;2023-07-02T12:01:19;25.20;83.50
5796;DHT22;2924;51.458;7.046;2023-07-02T12:03:45;26.40;81.50
5796;DHT22;2924;51.458;7.046;2023-07-02T12:06:11;27.30;80.50
5796;DHT22;2924;51.458;7.046;2023-07-02T12:08:36;27.20;79.30
5796;DHT22;2924;51.458;7.046;2023-07-02T12:11:02;26.80;79.20
5796;DHT22;2924;51.458;7.046;2023-07-02T12:13:27;26.30;79.80
5796;DHT22;2924;51.458;7.046;2023-07-02T12:15:53;25.60;81.10
5796;DHT22;2924;51.458;7.046;2023-07-02T12:18:18;25.30;81.60
5796;DHT22;2924;51.458;7.046;2023-07-02T12:20:44;25.20;81.10
5796;DHT22;2924;51.458;7.046;2023-07-02T12:23:10;25.40;81.70
5796;DHT22;2924;51.458;7.046;2023-07-02T12:25:37;25.10;81.70
5796;DHT22;2924;51.458;7.046;2023-07-02T12:28:03;24.70;82.30
5796;DHT22;2924;51.458;7.046;2023-07-02T12:30:29;24.20;82.30
5796;DHT22;2924;51.458;7.046;2023-07-02T12:32:55;24.00;83.50
5796;DHT22;2924;51.458;7.046;2023-07-02T12:35:21;24.10;84.00
5796;DHT22;2924;51.458;7.046;2023-07-02T12:37:48;24.00;83.90
5796;DHT22;2924;51.458;7.046;2023-07-02T12:40:14;24.30;84.80
5796;DHT22;2924;51.458;7.046;2023-07-02T12:42:44;25.10;83.30
5796;DHT22;2924;51.458;7.046;2023-07-02T12:45:11;25.60;82.10
5796;DHT22;2924;51.458;7.046;2023-07-02T12:47:37;26.10;81.90
5796;DHT22;2924;51.458;7.046;2023-07-02T12:50:03;26.50;81.50
5796;DHT22;2924;51.458;7.046;2023-07-02T12:52:29;26.60;80.80
5796;DHT22;2924;51.458;7.046;2023-07-02T12:54:55;26.50;80.50
5796;DHT22;2924;51.458;7.046;2023-07-02T12:57:21;26.50;80.90
5796;DHT22;2924;51.458;7.046;2023-07-02T12:59:46;26.50;81.30
5796;DHT22;2924;51.458;7.046;2023-07-02T13:02:12;26.50;81.80
5796;DHT22;2924;51.458;7.046;2023-07-02T13:04:38;26.50;82.40
5796;DHT22;2924;51.458;7.046;2023-07-02T13:07:04;26.30;81.70
5796;DHT22;2924;51.458;7.046;2023-07-02T13:09:29;26.00;82.70
5796;DHT22;2924;51.458;7.046;2023-07-02T13:11:55;26.00;82.20
5796;DHT22;2924;51.458;7.046;2023-07-02T13:14:20;25.90;82.10
5796;DHT22;2924;51.458;7.046;2023-07-02T13:16:46;25.60;82.80
5796;DHT22;2924;51.458;7.046;2023-07-02T13:19:13;25.10;82.60
5796;DHT22;2924;51.458;7.046;2023-07-02T13:21:40;24.80;83.80
5796;DHT22;2924;51.458;7.046;2023-07-02T13:24:05;24.80;84.70
5796;DHT22;2924;51.458;7.046;2023-07-02T13:26:31;25.10;84.20
5796;DHT22;2924;51.458;7.046;2023-07-02T13:28:57;25.20;84.00
5796;DHT22;2924;51.458;7.046;2023-07-02T13:31:23;25.30;84.50
5796;DHT22;2924;51.458;7.046;2023-07-02T13:33:49;25.40;84.40
5796;DHT22;2924;51.458;7.046;2023-07-02T13:36:15;25.90;84.20
5796;DHT22;2924;51.458;7.046;2023-07-02T13:38:41;26.60;84.70
5796;DHT22;2924;51.458;7.046;2023-07-02T13:41:07;27.30;82.40
5796;DHT22;2924;51.458;7.046;2023-07-02T13:43:33;27.50;82.00
5796;DHT22;2924;51.458;7.046;2023-07-02T13:45:58;27.40;81.90
5796;DHT22;2924;51.458;7.046;2023-07-02T13:48:24;27.10;82.30
5796;DHT22;2924;51.458;7.046;2023-07-02T13:50:49;27.00;82.30
5796;DHT22;2924;51.458;7.046;2023-07-02T13:53:15;26.70;82.50
5796;DHT22;2924;51.458;7.046;2023-07-02T13:55:41;26.60;82.40
5796;DHT22;2924;51.458;7.046;2023-07-02T13:58:06;27.20;84.20
5796;DHT22;2924;51.458;7.046;2023-07-02T14:00:32;27.40;82.60
5796;DHT22;2924;51.458;7.046;2023-07-02T14:02:58;27.80;83.00
5796;DHT22;2924;51.458;7.046;2023-07-02T14:05:24;27.80;82.00
5796;DHT22;2924;51.458;7.046;2023-07-02T14:07:49;27.60;81.70
5796;DHT22;2924;51.458;7.046;2023-07-02T14:10:15;27.20;81.70
5796;DHT22;2924;51.458;7.046;2023-07-02T14:12:41;27.10;82.00
5796;DHT22;2924;51.458;7.046;2023-07-02T14:15:08;27.10;82.80
5796;DHT22;2924;51.458;7.046;2023-07-02T14:17:34;27.50;82.20
5796;DHT22;2924;51.458;7.046;2023-07-02T14:20:02;27.00;82.30
5796;DHT22;2924;51.458;7.046;2023-07-02T14:22:27;26.70;83.70
5796;DHT22;2924;51.458;7.046;2023-07-02T14:24:53;26.80;84.20
5796;DHT22;2924;51.458;7.046;2023-07-02T14:27:19;26.50;83.30
5796;DHT22;2924;51.458;7.046;2023-07-02T14:29:44;26.20;84.00
5796;DHT22;2924;51.458;7.046;2023-07-02T14:32:12;25.80;84.70
5796;DHT22;2924;51.458;7.046;2023-07-02T14:34:38;25.70;85.10
5796;DHT22;2924;51.458;7.046;2023-07-02T14:37:05;25.70;84.70
5796;DHT22;2924;51.458;7.046;2023-07-02T14:39:31;25.60;84.90
5796;DHT22;2924;51.458;7.046;2023-07-02T14:41:56;25.20;85.20
5796;DHT22;2924;51.458;7.046;2023-07-02T14:44:22;24.90;86.00
5796;DHT22;2924;51.458;7.046;2023-07-02T14:46:47;24.90;86.40
5796;DHT22;2924;51.458;7.046;2023-07-02T14:49:14;25.00;86.60
5796;DHT22;2924;51.458;7.046;2023-07-02T14:51:40;25.20;86.50
5796;DHT22;2924;51.458;7.046;2023-07-02T14:54:06;25.90;87.20
5796;DHT22;2924;51.458;7.046;2023-07-02T14:56:33;27.00;85.50
5796;DHT22;2924;51.458;7.046;2023-07-02T14:58:59;27.60;83.50
5796;DHT22;2924;51.458;7.046;2023-07-02T15:01:24;27.80;82.80
5796;DHT22;2924;51.458;7.046;2023-07-02T15:03:50;27.80;82.60
5796;DHT22;2924;51.458;7.046;2023-07-02T15:06:17;26.90;81.90
5796;DHT22;2924;51.458;7.046;2023-07-02T15:08:43;26.30;83.60
5796;DHT22;2924;51.458;7.046;2023-07-02T15:11:14;26.30;83.70
5796;DHT22;2924;51.458;7.046;2023-07-02T15:13:40;26.50;83.80
5796;DHT22;2924;51.458;7.046;2023-07-02T15:16:07;26.70;83.70
5796;DHT22;2924;51.458;7.046;2023-07-02T15:18:34;26.80;83.20
5796;DHT22;2924;51.458;7.046;2023-07-02T15:21:00;27.00;84.30
5796;DHT22;2924;51.458;7.046;2023-07-02T15:23:27;27.10;84.10
5796;DHT22;2924;51.458;7.046;2023-07-02T15:25:57;27.10;83.60
5796;DHT22;2924;51.458;7.046;2023-07-02T15:28:24;26.70;83.70
5796;DHT22;2924;51.458;7.046;2023-07-02T15:30:54;26.10;84.90
5796;DHT22;2924;51.458;7.046;2023-07-02T15:33:20;25.60;85.20
5796;DHT22;2924;51.458;7.046;2023-07-02T15:35:46;25.70;85.30
5796;DHT22;2924;51.458;7.046;2023-07-02T15:38:12;26.10;83.20
5796;DHT22;2924;51.458;7.046;2023-07-02T15:40:37;26.30;82.80
5796;DHT22;2924;51.458;7.046;2023-07-02T15:43:03;26.30;83.00
5796;DHT22;2924;51.458;7.046;2023-07-02T15:45:28;26.50;83.40
5796;DHT22;2924;51.458;7.046;2023-07-02T15:47:54;26.50;82.00
5796;DHT22;2924;51.458;7.046;2023-07-02T15:50:20;26.30;82.70
5796;DHT22;2924;51.458;7.046;2023-07-02T15:52:45;25.90;83.10
5796;DHT22;2924;51.458;7.046;2023-07-02T15:55:11;25.60;83.20
5796;DHT22;2924;51.458;7.046;2023-07-02T15:57:37;25.60;82.80
5796;DHT22;2924;51.458;7.046;2023-07-02T16:00:03;25.60;83.20
5796;DHT22;2924;51.458;7.046;2023-07-02T16:02:28;25.20;83.50
5796;DHT22;2924;51.458;7.046;2023-07-02T16:04:54;25.00;84.30